EPAR weather

Arłamów Airport
Bircza, Subcarpathia, Poland

Public forecast

Using degrees Celsius for public forecast. Weather courtesy of forecast.io.

METAR (pilot weather report)

Closest report is Rzeszów-Jasionka Airport, 33.2 nm (61.6 km) NW. Retrieved 2019/03/24 04:30 UTC (0 seconds ago):

EPRZ 240430Z 26006KT 240V320 8000 FEW020 04/01 Q1022

TAF (pilot weather forecast)

Forecast is more than 12 hours old.

Closest forecast is Rzeszów-Jasionka Airport, 33.2 nm (61.6 km) NW. Retrieved 2019/03/23 00:37 UTC (1 day ago):

TAF EPRZ 232330Z 2400/2424 27007KT 6000 NSC BECMG 2402/2404 3000 BR BKN007 OVC014 BECMG 2405/2407 34012KT 9999 BKN020 BECMG 2415/2418 VRB02KT